sensor_id;sensor_type;location;lat;lon;timestamp;pressure;altitude;pressure_sealevel;temperature;humidity
6387;BME280;3226;42.162;24.756;2022-11-20T00:00:57;99086.72;;;11.82;100.00
6387;BME280;3226;42.162;24.756;2022-11-20T00:03:31;99093.31;;;11.68;100.00
6387;BME280;3226;42.162;24.756;2022-11-20T00:06:00;99113.84;;;11.73;100.00
6387;BME280;3226;42.162;24.756;2022-11-20T00:08:28;99087.09;;;11.41;100.00
6387;BME280;3226;42.162;24.756;2022-11-20T00:10:56;99084.69;;;11.57;100.00
6387;BME280;3226;42.162;24.756;2022-11-20T00:13:25;99104.16;;;11.73;100.00
6387;BME280;3226;42.162;24.756;2022-11-20T00:15:57;99104.09;;;11.65;100.00
6387;BME280;3226;42.162;24.756;2022-11-20T00:18:25;99102.47;;;11.82;100.00
6387;BME280;3226;42.162;24.756;2022-11-20T00:20:53;99105.22;;;11.80;100.00
6387;BME280;3226;42.162;24.756;2022-11-20T00:23:20;99103.13;;;11.84;100.00
6387;BME280;3226;42.162;24.756;2022-11-20T00:25:48;99097.19;;;11.64;100.00
6387;BME280;3226;42.162;24.756;2022-11-20T00:28:16;99093.31;;;11.40;100.00
6387;BME280;3226;42.162;24.756;2022-11-20T00:30:46;99087.56;;;11.36;100.00
6387;BME280;3226;42.162;24.756;2022-11-20T00:33:13;99081.91;;;11.31;100.00
6387;BME280;3226;42.162;24.756;2022-11-20T00:35:41;99089.53;;;11.52;100.00
6387;BME280;3226;42.162;24.756;2022-11-20T00:38:09;99094.78;;;11.52;100.00
6387;BME280;3226;42.162;24.756;2022-11-20T00:40:37;99099.53;;;11.67;100.00
6387;BME280;3226;42.162;24.756;2022-11-20T00:43:05;99105.22;;;11.80;100.00
6387;BME280;3226;42.162;24.756;2022-11-20T00:45:33;99091.91;;;11.46;100.00
6387;BME280;3226;42.162;24.756;2022-11-20T00:48:03;99095.09;;;11.49;100.00
6387;BME280;3226;42.162;24.756;2022-11-20T00:50:31;99091.72;;;11.57;100.00
6387;BME280;3226;42.162;24.756;2022-11-20T00:52:59;99108.13;;;11.59;100.00
6387;BME280;3226;42.162;24.756;2022-11-20T00:55:27;99096.91;;;11.67;100.00
6387;BME280;3226;42.162;24.756;2022-11-20T00:57:55;99093.78;;;11.35;100.00
6387;BME280;3226;42.162;24.756;2022-11-20T01:00:23;99095.00;;;11.59;100.00
6387;BME280;3226;42.162;24.756;2022-11-20T01:02:51;99093.81;;;11.53;100.00
6387;BME280;3226;42.162;24.756;2022-11-20T01:05:21;99101.97;;;11.50;100.00
6387;BME280;3226;42.162;24.756;2022-11-20T01:07:48;99101.09;;;11.60;100.00
6387;BME280;3226;42.162;24.756;2022-11-20T01:10:16;99099.22;;;11.42;100.00
6387;BME280;3226;42.162;24.756;2022-11-20T01:12:44;99096.13;;;11.56;100.00
6387;BME280;3226;42.162;24.756;2022-11-20T01:15:33;99089.25;;;11.55;100.00
6387;BME280;3226;42.162;24.756;2022-11-20T01:18:03;99090.09;;;11.46;100.00
6387;BME280;3226;42.162;24.756;2022-11-20T01:20:35;99078.81;;;11.46;100.00
6387;BME280;3226;42.162;24.756;2022-11-20T01:23:03;99065.91;;;12.17;100.00
6387;BME280;3226;42.162;24.756;2022-11-20T01:25:31;99076.19;;;12.28;100.00
6387;BME280;3226;42.162;24.756;2022-11-20T01:27:59;99048.06;;;12.02;100.00
6387;BME280;3226;42.162;24.756;2022-11-20T01:30:28;99042.53;;;12.05;100.00
6387;BME280;3226;42.162;24.756;2022-11-20T01:32:56;99056.63;;;12.04;100.00
6387;BME280;3226;42.162;24.756;2022-11-20T01:35:24;99027.97;;;11.93;100.00
6387;BME280;3226;42.162;24.756;2022-11-20T01:37:53;99063.94;;;11.82;100.00
6387;BME280;3226;42.162;24.756;2022-11-20T01:40:21;99051.03;;;11.89;100.00
6387;BME280;3226;42.162;24.756;2022-11-20T01:42:55;99051.72;;;11.91;100.00
6387;BME280;3226;42.162;24.756;2022-11-20T01:48:50;99052.56;;;11.92;100.00
6387;BME280;3226;42.162;24.756;2022-11-20T01:51:25;99040.72;;;11.88;100.00
6387;BME280;3226;42.162;24.756;2022-11-20T01:54:00;99026.94;;;11.67;100.00
6387;BME280;3226;42.162;24.756;2022-11-20T01:56:31;99034.69;;;11.77;100.00
6387;BME280;3226;42.162;24.756;2022-11-20T01:59:04;99031.34;;;12.03;100.00
6387;BME280;3226;42.162;24.756;2022-11-20T02:01:33;99025.84;;;11.78;100.00
6387;BME280;3226;42.162;24.756;2022-11-20T02:04:02;99031.25;;;11.95;100.00
6387;BME280;3226;42.162;24.756;2022-11-20T02:06:32;99041.53;;;12.06;100.00
6387;BME280;3226;42.162;24.756;2022-11-20T02:09:04;99033.06;;;12.12;100.00
6387;BME280;3226;42.162;24.756;2022-11-20T02:11:32;99031.47;;;11.65;100.00
6387;BME280;3226;42.162;24.756;2022-11-20T02:14:00;99018.06;;;11.86;100.00
6387;BME280;3226;42.162;24.756;2022-11-20T02:16:29;99021.16;;;11.82;100.00
6387;BME280;3226;42.162;24.756;2022-11-20T02:19:00;99031.25;;;11.95;100.00
6387;BME280;3226;42.162;24.756;2022-11-20T02:21:34;99024.31;;;12.04;100.00
6387;BME280;3226;42.162;24.756;2022-11-20T02:24:08;99023.53;;;11.93;100.00
6387;BME280;3226;42.162;24.756;2022-11-20T02:26:42;99023.69;;;11.92;100.00
6387;BME280;3226;42.162;24.756;2022-11-20T02:29:11;99021.38;;;11.89;100.00
6387;BME280;3226;42.162;24.756;2022-11-20T02:31:41;99017.94;;;12.06;100.00
6387;BME280;3226;42.162;24.756;2022-11-20T02:34:10;98995.88;;;11.99;100.00
6387;BME280;3226;42.162;24.756;2022-11-20T02:36:39;98998.63;;;11.97;100.00
6387;BME280;3226;42.162;24.756;2022-11-20T02:39:11;98998.13;;;11.76;100.00
6387;BME280;3226;42.162;24.756;2022-11-20T02:41:43;98998.34;;;11.82;100.00
6387;BME280;3226;42.162;24.756;2022-11-20T02:44:11;98991.69;;;11.88;100.00
6387;BME280;3226;42.162;24.756;2022-11-20T02:46:39;98994.59;;;11.85;100.00
6387;BME280;3226;42.162;24.756;2022-11-20T02:49:07;99004.97;;;11.86;100.00
6387;BME280;3226;42.162;24.756;2022-11-20T02:51:35;99025.84;;;12.14;100.00
6387;BME280;3226;42.162;24.756;2022-11-20T02:54:03;99018.22;;;12.21;100.00
6387;BME280;3226;42.162;24.756;2022-11-20T02:56:33;99012.06;;;12.12;100.00
6387;BME280;3226;42.162;24.756;2022-11-20T02:59:01;98992.88;;;12.12;100.00
6387;BME280;3226;42.162;24.756;2022-11-20T03:01:29;99011.19;;;11.85;100.00
6387;BME280;3226;42.162;24.756;2022-11-20T03:03:57;99014.63;;;12.04;100.00
6387;BME280;3226;42.162;24.756;2022-11-20T03:06:25;99007.19;;;11.63;100.00
6387;BME280;3226;42.162;24.756;2022-11-20T03:08:53;98992.41;;;11.44;100.00
6387;BME280;3226;42.162;24.756;2022-11-20T03:11:21;99005.63;;;11.34;100.00
6387;BME280;3226;42.162;24.756;2022-11-20T03:13:50;99023.72;;;11.27;100.00
6387;BME280;3226;42.162;24.756;2022-11-20T03:16:20;99013.00;;;11.21;100.00
6387;BME280;3226;42.162;24.756;2022-11-20T03:18:49;99010.16;;;11.14;100.00
6387;BME280;3226;42.162;24.756;2022-11-20T03:21:17;99018.47;;;11.27;100.00
6387;BME280;3226;42.162;24.756;2022-11-20T03:23:45;99002.19;;;11.52;100.00
6387;BME280;3226;42.162;24.756;2022-11-20T03:26:15;98991.06;;;11.76;100.00
6387;BME280;3226;42.162;24.756;2022-11-20T03:28:47;98981.34;;;11.32;100.00
6387;BME280;3226;42.162;24.756;2022-11-20T03:31:20;98981.94;;;11.44;100.00
6387;BME280;3226;42.162;24.756;2022-11-20T03:33:49;99002.22;;;11.42;100.00
6387;BME280;3226;42.162;24.756;2022-11-20T03:36:18;98984.84;;;11.41;100.00
6387;BME280;3226;42.162;24.756;2022-11-20T03:38:47;98959.84;;;11.28;100.00
6387;BME280;3226;42.162;24.756;2022-11-20T03:41:18;98969.97;;;11.60;100.00
6387;BME280;3226;42.162;24.756;2022-11-20T03:43:47;98985.34;;;11.73;100.00
6387;BME280;3226;42.162;24.756;2022-11-20T03:46:18;99005.63;;;11.89;100.00
6387;BME280;3226;42.162;24.756;2022-11-20T03:48:46;98992.34;;;11.90;100.00
6387;BME280;3226;42.162;24.756;2022-11-20T03:51:19;99001.81;;;11.65;100.00
6387;BME280;3226;42.162;24.756;2022-11-20T03:53:48;99006.69;;;11.78;100.00
6387;BME280;3226;42.162;24.756;2022-11-20T03:56:18;99004.19;;;11.94;100.00
6387;BME280;3226;42.162;24.756;2022-11-20T03:58:46;98992.00;;;11.67;100.00
6387;BME280;3226;42.162;24.756;2022-11-20T04:01:18;98989.44;;;11.75;100.00
6387;BME280;3226;42.162;24.756;2022-11-20T04:03:47;98988.47;;;11.76;100.00
6387;BME280;3226;42.162;24.756;2022-11-20T04:06:20;99005.94;;;11.85;100.00
6387;BME280;3226;42.162;24.756;2022-11-20T04:08:48;98997.81;;;11.97;100.00
6387;BME280;3226;42.162;24.756;2022-11-20T04:11:20;99008.28;;;12.07;100.00
6387;BME280;3226;42.162;24.756;2022-11-20T04:13:51;99012.69;;;12.06;100.00
6387;BME280;3226;42.162;24.756;2022-11-20T04:16:21;99009.69;;;12.01;100.00
6387;BME280;3226;42.162;24.756;2022-11-20T04:18:51;99002.72;;;11.92;100.00
6387;BME280;3226;42.162;24.756;2022-11-20T04:21:20;99007.16;;;11.99;100.00
6387;BME280;3226;42.162;24.756;2022-11-20T04:23:48;99015.00;;;12.09;100.00
6387;BME280;3226;42.162;24.756;2022-11-20T04:26:16;99002.50;;;12.03;100.00
6387;BME280;3226;42.162;24.756;2022-11-20T04:28:45;99009.69;;;12.01;100.00
6387;BME280;3226;42.162;24.756;2022-11-20T04:31:15;99006.94;;;12.03;100.00
6387;BME280;3226;42.162;24.756;2022-11-20T04:33:45;99014.81;;;12.03;100.00
6387;BME280;3226;42.162;24.756;2022-11-20T04:36:15;99012.22;;;11.93;100.00
6387;BME280;3226;42.162;24.756;2022-11-20T04:38:43;99006.00;;;11.94;100.00
6387;BME280;3226;42.162;24.756;2022-11-20T04:41:14;98998.31;;;12.19;100.00
6387;BME280;3226;42.162;24.756;2022-11-20T04:43:46;99000.44;;;12.41;100.00
6387;BME280;3226;42.162;24.756;2022-11-20T04:46:15;99009.44;;;12.57;100.00
6387;BME280;3226;42.162;24.756;2022-11-20T04:48:45;99003.13;;;12.50;100.00
6387;BME280;3226;42.162;24.756;2022-11-20T04:51:14;99014.38;;;12.60;100.00
6387;BME280;3226;42.162;24.756;2022-11-20T04:53:42;98998.75;;;12.58;100.00
6387;BME280;3226;42.162;24.756;2022-11-20T04:56:11;99005.59;;;13.21;100.00
6387;BME280;3226;42.162;24.756;2022-11-20T04:58:40;99008.69;;;13.24;100.00
6387;BME280;3226;42.162;24.756;2022-11-20T05:01:11;99000.78;;;13.16;100.00
6387;BME280;3226;42.162;24.756;2022-11-20T05:03:41;98999.69;;;13.27;100.00
6387;BME280;3226;42.162;24.756;2022-11-20T05:06:12;99008.56;;;13.26;100.00
6387;BME280;3226;42.162;24.756;2022-11-20T05:08:41;99002.09;;;13.12;100.00
6387;BME280;3226;42.162;24.756;2022-11-20T05:11:10;98990.22;;;12.91;100.00
6387;BME280;3226;42.162;24.756;2022-11-20T05:13:39;98997.81;;;13.02;100.00
6387;BME280;3226;42.162;24.756;2022-11-20T05:16:09;99017.88;;;13.12;100.00
6387;BME280;3226;42.162;24.756;2022-11-20T05:18:38;99034.97;;;13.16;100.00
6387;BME280;3226;42.162;24.756;2022-11-20T05:21:08;99035.63;;;13.10;100.00
6387;BME280;3226;42.162;24.756;2022-11-20T05:23:38;99021.84;;;12.81;100.00
6387;BME280;3226;42.162;24.756;2022-11-20T05:26:08;99009.03;;;13.21;100.00
6387;BME280;3226;42.162;24.756;2022-11-20T05:28:39;99024.19;;;13.36;100.00
6387;BME280;3226;42.162;24.756;2022-11-20T05:31:09;99035.03;;;13.33;100.00
6387;BME280;3226;42.162;24.756;2022-11-20T05:33:39;99026.91;;;13.09;100.00
6387;BME280;3226;42.162;24.756;2022-11-20T05:36:09;98998.75;;;12.93;100.00
6387;BME280;3226;42.162;24.756;2022-11-20T05:38:38;99000.53;;;13.27;100.00
6387;BME280;3226;42.162;24.756;2022-11-20T05:41:08;99018.44;;;13.40;100.00
6387;BME280;3226;42.162;24.756;2022-11-20T05:43:38;99018.44;;;13.32;100.00
6387;BME280;3226;42.162;24.756;2022-11-20T05:46:07;99010.19;;;13.27;100.00
6387;BME280;3226;42.162;24.756;2022-11-20T05:48:36;98996.72;;;13.22;100.00
6387;BME280;3226;42.162;24.756;2022-11-20T05:51:07;99026.56;;;13.47;100.00
6387;BME280;3226;42.162;24.756;2022-11-20T05:53:37;99023.94;;;13.55;100.00
6387;BME280;3226;42.162;24.756;2022-11-20T05:56:15;99022.31;;;13.63;100.00
6387;BME280;3226;42.162;24.756;2022-11-20T05:58:44;99017.34;;;13.59;100.00
6387;BME280;3226;42.162;24.756;2022-11-20T06:01:14;99027.47;;;13.29;100.00
6387;BME280;3226;42.162;24.756;2022-11-20T06:03:43;99030.44;;;13.26;100.00
6387;BME280;3226;42.162;24.756;2022-11-20T06:06:15;99033.16;;;13.08;100.00
6387;BME280;3226;42.162;24.756;2022-11-20T06:08:44;99021.75;;;12.91;100.00
6387;BME280;3226;42.162;24.756;2022-11-20T06:11:13;99045.97;;;13.11;100.00
6387;BME280;3226;42.162;24.756;2022-11-20T06:13:42;99036.53;;;12.92;100.00
6387;BME280;3226;42.162;24.756;2022-11-20T06:16:11;99030.09;;;12.86;100.00
6387;BME280;3226;42.162;24.756;2022-11-20T06:18:39;99023.53;;;12.56;100.00
6387;BME280;3226;42.162;24.756;2022-11-20T06:21:09;99056.25;;;12.70;100.00
6387;BME280;3226;42.162;24.756;2022-11-20T06:23:38;99010.69;;;12.26;100.00
6387;BME280;3226;42.162;24.756;2022-11-20T06:26:10;99023.00;;;12.52;100.00
6387;BME280;3226;42.162;24.756;2022-11-20T06:28:38;99046.94;;;12.76;100.00
6387;BME280;3226;42.162;24.756;2022-11-20T06:31:07;99067.59;;;12.70;100.00
6387;BME280;3226;42.162;24.756;2022-11-20T06:33:35;99054.19;;;12.82;100.00
6387;BME280;3226;42.162;24.756;2022-11-20T06:36:04;99066.50;;;12.73;100.00
6387;BME280;3226;42.162;24.756;2022-11-20T06:38:37;99064.00;;;12.71;100.00
6387;BME280;3226;42.162;24.756;2022-11-20T06:41:06;99059.88;;;12.69;100.00
6387;BME280;3226;42.162;24.756;2022-11-20T06:43:35;99068.72;;;12.94;100.00
6387;BME280;3226;42.162;24.756;2022-11-20T06:46:03;99055.31;;;13.06;100.00
6387;BME280;3226;42.162;24.756;2022-11-20T06:48:33;99065.81;;;13.06;100.00
6387;BME280;3226;42.162;24.756;2022-11-20T06:51:02;99078.88;;;13.24;100.00
6387;BME280;3226;42.162;24.756;2022-11-20T06:53:31;99064.63;;;13.35;100.00
6387;BME280;3226;42.162;24.756;2022-11-20T06:55:59;99065.88;;;13.22;100.00
6387;BME280;3226;42.162;24.756;2022-11-20T06:58:29;99076.53;;;13.12;100.00
6387;BME280;3226;42.162;24.756;2022-11-20T07:01:03;99072.50;;;13.26;100.00
6387;BME280;3226;42.162;24.756;2022-11-20T07:03:31;99082.06;;;13.36;100.00
6387;BME280;3226;42.162;24.756;2022-11-20T07:06:00;99073.09;;;13.20;100.00
6387;BME280;3226;42.162;24.756;2022-11-20T07:08:29;99046.66;;;13.13;100.00
6387;BME280;3226;42.162;24.756;2022-11-20T07:10:58;99023.78;;;13.14;100.00
6387;BME280;3226;42.162;24.756;2022-11-20T07:13:27;99058.78;;;13.57;100.00
6387;BME280;3226;42.162;24.756;2022-11-20T07:15:58;99047.84;;;13.27;100.00
6387;BME280;3226;42.162;24.756;2022-11-20T07:18:28;99065.50;;;13.43;100.00
6387;BME280;3226;42.162;24.756;2022-11-20T07:21:00;99073.81;;;13.30;100.00
6387;BME280;3226;42.162;24.756;2022-11-20T07:23:28;99087.81;;;13.39;100.00
6387;BME280;3226;42.162;24.756;2022-11-20T07:25:56;99081.78;;;13.47;100.00
6387;BME280;3226;42.162;24.756;2022-11-20T07:28:24;99072.19;;;13.29;100.00
6387;BME280;3226;42.162;24.756;2022-11-20T07:30:53;99074.50;;;13.41;100.00
6387;BME280;3226;42.162;24.756;2022-11-20T07:33:21;99064.69;;;13.43;100.00
6387;BME280;3226;42.162;24.756;2022-11-20T07:35:50;99074.25;;;13.61;100.00
6387;BME280;3226;42.162;24.756;2022-11-20T07:38:18;99088.63;;;13.83;100.00
6387;BME280;3226;42.162;24.756;2022-11-20T07:40:46;99098.31;;;13.82;100.00
6387;BME280;3226;42.162;24.756;2022-11-20T07:43:15;99087.47;;;13.94;100.00
6387;BME280;3226;42.162;24.756;2022-11-20T07:45:43;99044.50;;;13.68;100.00
6387;BME280;3226;42.162;24.756;2022-11-20T07:48:11;99110.88;;;14.05;100.00
6387;BME280;3226;42.162;24.756;2022-11-20T07:50:39;99047.66;;;13.72;100.00
6387;BME280;3226;42.162;24.756;2022-11-20T07:53:09;99093.91;;;13.91;100.00
6387;BME280;3226;42.162;24.756;2022-11-20T07:55:37;99092.78;;;14.02;100.00
6387;BME280;3226;42.162;24.756;2022-11-20T07:58:05;99088.31;;;14.11;100.00
6387;BME280;3226;42.162;24.756;2022-11-20T08:00:33;99082.88;;;14.29;100.00
6387;BME280;3226;42.162;24.756;2022-11-20T08:03:03;99088.50;;;14.42;99.59
6387;BME280;3226;42.162;24.756;2022-11-20T08:05:31;99082.72;;;14.47;98.57
6387;BME280;3226;42.162;24.756;2022-11-20T08:08:01;99042.09;;;14.33;98.10
6387;BME280;3226;42.162;24.756;2022-11-20T08:10:30;99083.06;;;14.36;98.72
6387;BME280;3226;42.162;24.756;2022-11-20T08:12:58;99076.16;;;14.18;99.86
6387;BME280;3226;42.162;24.756;2022-11-20T08:15:48;99087.69;;;14.25;99.65
6387;BME280;3226;42.162;24.756;2022-11-20T08:18:17;99104.97;;;14.36;99.38
6387;BME280;3226;42.162;24.756;2022-11-20T08:21:02;99096.38;;;14.17;100.00
6387;BME280;3226;42.162;24.756;2022-11-20T08:23:30;99049.16;;;13.91;100.00
6387;BME280;3226;42.162;24.756;2022-11-20T08:26:00;99082.38;;;14.09;100.00
6387;BME280;3226;42.162;24.756;2022-11-20T08:28:28;99081.25;;;14.36;99.84
6387;BME280;3226;42.162;24.756;2022-11-20T08:30:58;99076.63;;;14.55;98.28
6387;BME280;3226;42.162;24.756;2022-11-20T08:33:27;99082.53;;;14.65;97.49
6387;BME280;3226;42.162;24.756;2022-11-20T08:35:58;99054.88;;;14.69;96.50
6387;BME280;3226;42.162;24.756;2022-11-20T08:38:27;99053.81;;;14.95;94.00
6387;BME280;3226;42.162;24.756;2022-11-20T08:40:56;99072.69;;;15.24;93.13
6387;BME280;3226;42.162;24.756;2022-11-20T08:43:43;99063.09;;;15.31;90.43
6387;BME280;3226;42.162;24.756;2022-11-20T08:46:12;99062.59;;;15.27;90.28
6387;BME280;3226;42.162;24.756;2022-11-20T08:48:40;99058.38;;;15.18;90.11
6387;BME280;3226;42.162;24.756;2022-11-20T08:51:08;99051.84;;;15.06;92.73
6387;BME280;3226;42.162;24.756;2022-11-20T08:53:37;99054.97;;;15.01;94.61
6387;BME280;3226;42.162;24.756;2022-11-20T08:56:06;99084.34;;;15.29;93.11
6387;BME280;3226;42.162;24.756;2022-11-20T08:58:34;99075.19;;;15.49;92.63
6387;BME280;3226;42.162;24.756;2022-11-20T09:01:23;99066.03;;;15.68;91.99
6387;BME280;3226;42.162;24.756;2022-11-20T09:03:52;99062.28;;;15.85;90.25
6387;BME280;3226;42.162;24.756;2022-11-20T09:06:20;99060.56;;;16.01;89.87
6387;BME280;3226;42.162;24.756;2022-11-20T09:08:51;99064.09;;;16.16;89.29
6387;BME280;3226;42.162;24.756;2022-11-20T09:11:20;98993.19;;;16.05;87.06
6387;BME280;3226;42.162;24.756;2022-11-20T09:13:48;99068.19;;;16.72;86.64
6387;BME280;3226;42.162;24.756;2022-11-20T09:16:16;99036.66;;;16.86;86.49
6387;BME280;3226;42.162;24.756;2022-11-20T09:18:46;99060.00;;;17.27;85.97
6387;BME280;3226;42.162;24.756;2022-11-20T09:21:33;98994.16;;;17.02;85.01
6387;BME280;3226;42.162;24.756;2022-11-20T09:24:01;99051.06;;;17.50;84.46
6387;BME280;3226;42.162;24.756;2022-11-20T09:26:29;99052.50;;;17.31;82.81
6387;BME280;3226;42.162;24.756;2022-11-20T09:28:57;99037.00;;;17.13;83.34
6387;BME280;3226;42.162;24.756;2022-11-20T09:31:25;99031.00;;;17.19;82.59
6387;BME280;3226;42.162;24.756;2022-11-20T09:33:55;99014.41;;;16.95;81.68
6387;BME280;3226;42.162;24.756;2022-11-20T09:36:23;99021.50;;;17.10;81.99
6387;BME280;3226;42.162;24.756;2022-11-20T09:38:52;99017.84;;;17.26;81.76
6387;BME280;3226;42.162;24.756;2022-11-20T09:41:50;99003.19;;;17.45;80.26
6387;BME280;3226;42.162;24.756;2022-11-20T09:44:33;99017.09;;;17.90;79.11
6387;BME280;3226;42.162;24.756;2022-11-20T09:47:08;98974.56;;;17.77;79.12
6387;BME280;3226;42.162;24.756;2022-11-20T09:49:53;98991.59;;;18.11;77.21
6387;BME280;3226;42.162;24.756;2022-11-20T09:52:35;98994.28;;;18.18;77.64
6387;BME280;3226;42.162;24.756;2022-11-20T09:55:09;98992.19;;;18.35;75.89
6387;BME280;3226;42.162;24.756;2022-11-20T09:57:42;98978.06;;;18.28;75.62
6387;BME280;3226;42.162;24.756;2022-11-20T10:00:13;98978.84;;;18.22;76.18
6387;BME280;3226;42.162;24.756;2022-11-20T10:02:44;98973.41;;;18.37;75.87
6387;BME280;3226;42.162;24.756;2022-11-20T10:05:18;98990.28;;;18.57;76.00
6387;BME280;3226;42.162;24.756;2022-11-20T10:07:52;98981.50;;;18.57;76.02
6387;BME280;3226;42.162;24.756;2022-11-20T10:10:30;99002.44;;;18.87;75.13
6387;BME280;3226;42.162;24.756;2022-11-20T10:13:23;98972.06;;;18.89;73.68
6387;BME280;3226;42.162;24.756;2022-11-20T10:16:05;98975.16;;;18.93;74.07
6387;BME280;3226;42.162;24.756;2022-11-20T10:18:48;98964.41;;;19.01;73.77
6387;BME280;3226;42.162;24.756;2022-11-20T10:21:26;98978.50;;;19.09;72.96
6387;BME280;3226;42.162;24.756;2022-11-20T10:24:17;98980.75;;;19.12;72.99
6387;BME280;3226;42.162;24.756;2022-11-20T10:26:57;98933.03;;;18.34;74.91
6387;BME280;3226;42.162;24.756;2022-11-20T10:29:32;98977.50;;;18.74;74.60
6387;BME280;3226;42.162;24.756;2022-11-20T10:32:03;98953.03;;;18.37;75.34
6387;BME280;3226;42.162;24.756;2022-11-20T10:34:35;98962.00;;;18.36;76.43
6387;BME280;3226;42.162;24.756;2022-11-20T10:37:11;98959.91;;;18.25;77.33
6387;BME280;3226;42.162;24.756;2022-11-20T10:39:46;98952.59;;;18.33;75.96
6387;BME280;3226;42.162;24.756;2022-11-20T10:42:29;98962.13;;;18.56;75.50
6387;BME280;3226;42.162;24.756;2022-11-20T10:45:11;98932.47;;;18.39;75.22
6387;BME280;3226;42.162;24.756;2022-11-20T10:47:43;98948.75;;;18.36;78.60
6387;BME280;3226;42.162;24.756;2022-11-20T10:50:15;98905.16;;;18.10;77.30
6387;BME280;3226;42.162;24.756;2022-11-20T10:52:55;98933.75;;;18.15;77.62
6387;BME280;3226;42.162;24.756;2022-11-20T10:55:35;98936.75;;;18.40;77.05
6387;BME280;3226;42.162;24.756;2022-11-20T10:58:10;98933.13;;;18.55;76.52
6387;BME280;3226;42.162;24.756;2022-11-20T11:00:41;98935.25;;;18.66;76.31
6387;BME280;3226;42.162;24.756;2022-11-20T11:03:20;98935.25;;;18.73;75.87
6387;BME280;3226;42.162;24.756;2022-11-20T11:05:53;98934.88;;;18.76;76.22
6387;BME280;3226;42.162;24.756;2022-11-20T11:08:26;98933.88;;;18.84;75.53
6387;BME280;3226;42.162;24.756;2022-11-20T11:11:01;98934.50;;;18.86;75.50
6387;BME280;3226;42.162;24.756;2022-11-20T11:13:31;98929.81;;;18.88;75.96
6387;BME280;3226;42.162;24.756;2022-11-20T11:15:59;98915.81;;;18.52;77.94
6387;BME280;3226;42.162;24.756;2022-11-20T11:18:29;98880.16;;;17.91;80.37
6387;BME280;3226;42.162;24.756;2022-11-20T11:21:00;98906.47;;;18.21;78.48
6387;BME280;3226;42.162;24.756;2022-11-20T11:23:32;98910.25;;;18.40;77.79
6387;BME280;3226;42.162;24.756;2022-11-20T11:26:05;98906.19;;;18.44;78.04
6387;BME280;3226;42.162;24.756;2022-11-20T11:28:33;98906.13;;;18.31;77.93
6387;BME280;3226;42.162;24.756;2022-11-20T11:31:01;98901.84;;;18.37;77.04
6387;BME280;3226;42.162;24.756;2022-11-20T11:33:31;98899.47;;;18.13;77.33
6387;BME280;3226;42.162;24.756;2022-11-20T11:36:01;98896.66;;;18.15;76.72
6387;BME280;3226;42.162;24.756;2022-11-20T11:38:35;98897.94;;;18.26;76.26
6387;BME280;3226;42.162;24.756;2022-11-20T11:41:05;98899.97;;;18.24;75.93
6387;BME280;3226;42.162;24.756;2022-11-20T11:43:35;98844.06;;;18.18;75.15
6387;BME280;3226;42.162;24.756;2022-11-20T11:46:32;98896.00;;;18.48;73.78
6387;BME280;3226;42.162;24.756;2022-11-20T11:49:11;98906.88;;;18.60;74.06
6387;BME280;3226;42.162;24.756;2022-11-20T11:51:54;98904.31;;;18.80;73.47
6387;BME280;3226;42.162;24.756;2022-11-20T11:54:30;98901.03;;;18.85;73.07
6387;BME280;3226;42.162;24.756;2022-11-20T11:57:00;98907.19;;;18.92;72.86
6387;BME280;3226;42.162;24.756;2022-11-20T11:59:43;98904.31;;;18.87;73.75
6387;BME280;3226;42.162;24.756;2022-11-20T12:02:24;98907.66;;;19.02;72.52
6387;BME280;3226;42.162;24.756;2022-11-20T12:04:58;98904.78;;;19.04;71.81
6387;BME280;3226;42.162;24.756;2022-11-20T12:07:37;98888.97;;;18.75;74.30
6387;BME280;3226;42.162;24.756;2022-11-20T12:10:19;98900.84;;;18.86;73.67
6387;BME280;3226;42.162;24.756;2022-11-20T12:12:52;98881.66;;;18.84;73.90
6387;BME280;3226;42.162;24.756;2022-11-20T12:15:33;98898.28;;;19.06;72.71
6387;BME280;3226;42.162;24.756;2022-11-20T12:18:01;98890.53;;;19.12;73.13
6387;BME280;3226;42.162;24.756;2022-11-20T12:20:35;98887.25;;;19.10;71.97
6387;BME280;3226;42.162;24.756;2022-11-20T12:23:14;98851.66;;;18.77;73.18
6387;BME280;3226;42.162;24.756;2022-11-20T12:25:48;98832.88;;;18.78;72.66
6387;BME280;3226;42.162;24.756;2022-11-20T12:31:30;98894.63;;;19.28;71.37
6387;BME280;3226;42.162;24.756;2022-11-20T12:34:13;98879.31;;;19.10;72.72
6387;BME280;3226;42.162;24.756;2022-11-20T12:36:52;98875.44;;;19.19;72.88
6387;BME280;3226;42.162;24.756;2022-11-20T12:39:34;98871.75;;;19.13;72.79
6387;BME280;3226;42.162;24.756;2022-11-20T12:42:17;98872.09;;;18.97;72.90
6387;BME280;3226;42.162;24.756;2022-11-20T12:45:19;98852.06;;;18.81;73.08
6387;BME280;3226;42.162;24.756;2022-11-20T12:48:19;98865.53;;;18.86;74.02
6387;BME280;3226;42.162;24.756;2022-11-20T12:51:09;98856.56;;;18.87;74.14
6387;BME280;3226;42.162;24.756;2022-11-20T12:53:55;98831.16;;;18.44;75.46
6387;BME280;3226;42.162;24.756;2022-11-20T12:56:36;98866.75;;;18.76;71.02
6387;BME280;3226;42.162;24.756;2022-11-20T12:59:23;98861.41;;;18.70;74.49
6387;BME280;3226;42.162;24.756;2022-11-20T13:02:05;98876.91;;;18.66;73.39
6387;BME280;3226;42.162;24.756;2022-11-20T13:04:54;98872.00;;;18.70;71.02
6387;BME280;3226;42.162;24.756;2022-11-20T13:07:30;98871.03;;;18.77;68.32
6387;BME280;3226;42.162;24.756;2022-11-20T13:10:00;98865.75;;;18.84;64.86
6387;BME280;3226;42.162;24.756;2022-11-20T13:12:39;98875.59;;;19.04;62.68
6387;BME280;3226;42.162;24.756;2022-11-20T13:15:17;98779.78;;;18.45;61.52
6387;BME280;3226;42.162;24.756;2022-11-20T13:17:54;98873.59;;;19.13;61.46
6387;BME280;3226;42.162;24.756;2022-11-20T13:20:26;98890.75;;;19.17;59.78
6387;BME280;3226;42.162;24.756;2022-11-20T13:23:00;98901.97;;;19.26;59.04
6387;BME280;3226;42.162;24.756;2022-11-20T13:25:30;98890.13;;;19.21;57.01
6387;BME280;3226;42.162;24.756;2022-11-20T13:28:00;98886.06;;;19.26;56.84
6387;BME280;3226;42.162;24.756;2022-11-20T13:30:36;98895.44;;;19.35;56.03
6387;BME280;3226;42.162;24.756;2022-11-20T13:33:07;98895.03;;;19.38;56.26
6387;BME280;3226;42.162;24.756;2022-11-20T13:35:37;98915.69;;;19.43;55.68